Time;durP1;ratioP1;P1;durP2;ratioP2;P2;SDS_P1;SDS_P2;PMS_P1;PMS_P2;Temp;Humidity;BMP_temperature;BMP_pressure;BME280_temperature;BME280_humidity;BME280_pressure;Samples;Min_cycle;Max_cycle;Signal;HPM_P1;HPM_P2
2021/09/17 00:01:14;;;;;;;;;34.50;27.75;;;;;19.17;65.40;101556.53;4888417;29;45178;-58
2021/09/17 00:03:39;;;;;;;;;30.00;26.00;;;;;19.18;64.82;101560.06;4903353;28;45365;-59
2021/09/17 00:06:05;;;;;;;;;37.50;29.50;;;;;19.15;65.20;101549.63;4907336;29;45526;-58
2021/09/17 00:08:30;;;;;;;;;31.75;29.00;;;;;19.10;64.92;101554.50;4898702;29;46482;-59
2021/09/17 00:10:56;;;;;;;;;35.75;28.75;;;;;19.07;64.92;101552.09;4899156;29;45334;-58
2021/09/17 00:13:22;;;;;;;;;32.75;27.50;;;;;19.03;65.40;101545.28;4897120;29;46146;-58
2021/09/17 00:15:47;;;;;;;;;30.25;26.75;;;;;19.01;65.27;101548.09;4900525;29;45392;-58
2021/09/17 00:18:13;;;;;;;;;29.75;25.50;;;;;19.01;65.09;101557.91;4906758;29;45600;-58
2021/09/17 00:20:39;;;;;;;;;27.25;25.75;;;;;18.98;65.57;101545.69;4903336;29;45449;-58
2021/09/17 00:23:04;;;;;;;;;24.00;23.00;;;;;18.96;65.63;101539.63;4896508;29;45301;-59
2021/09/17 00:25:30;;;;;;;;;29.50;23.75;;;;;18.94;65.52;101545.06;4887993;29;45317;-58
2021/09/17 00:27:55;;;;;;;;;29.50;24.50;;;;;18.95;65.56;101541.41;4887820;29;45301;-59
2021/09/17 00:30:23;;;;;;;;;29.25;23.00;;;;;18.95;65.89;101538.75;4888165;29;45317;-58
2021/09/17 00:32:48;;;;;;;;;23.50;20.50;;;;;18.92;65.58;101539.00;4887648;29;45388;-58
2021/09/17 00:35:14;;;;;;;;;25.50;20.25;;;;;18.89;65.26;101541.09;4887782;29;45231;-58
2021/09/17 00:37:39;;;;;;;;;28.00;19.75;;;;;18.85;65.74;101539.63;4887825;29;45255;-58
2021/09/17 00:40:05;;;;;;;;;20.00;17.00;;;;;18.81;65.67;101540.88;4887876;29;45225;-58
2021/09/17 00:42:35;;;;;;;;;24.50;22.50;;;;;18.78;65.50;101538.44;4887424;29;45336;-58
2021/09/17 00:45:01;;;;;;;;;34.50;26.50;;;;;18.76;65.37;101529.72;4887657;29;45236;-58
2021/09/17 00:47:27;;;;;;;;;36.25;31.25;;;;;18.74;65.59;101537.84;4887522;29;45388;-59
2021/09/17 00:49:52;;;;;;;;;33.50;30.50;;;;;18.70;65.42;101528.38;4887753;29;45570;-59
2021/09/17 00:52:18;;;;;;;;;35.75;31.25;;;;;18.69;65.28;101532.03;4887202;29;46046;-59
2021/09/17 00:54:43;;;;;;;;;29.25;29.00;;;;;18.65;65.59;101523.44;4887402;29;45325;-58
2021/09/17 00:57:09;;;;;;;;;31.00;29.00;;;;;18.62;65.77;101523.63;4887599;29;45282;-59
2021/09/17 00:59:34;;;;;;;;;23.75;23.50;;;;;18.60;65.58;101527.41;4887644;29;45430;-58
2021/09/17 01:02:00;;;;;;;;;33.00;28.25;;;;;18.58;65.89;101524.00;4889356;29;46229;-59
2021/09/17 01:04:25;;;;;;;;;31.50;24.25;;;;;18.56;66.18;101520.59;4905754;29;45387;-58
2021/09/17 01:06:51;;;;;;;;;27.25;24.50;;;;;18.50;65.86;101519.28;4906140;29;45337;-59
2021/09/17 01:09:17;;;;;;;;;26.25;23.00;;;;;18.47;66.09;101521.34;4905913;29;45360;-58
2021/09/17 01:11:45;;;;;;;;;29.25;26.00;;;;;18.45;66.53;101521.47;4905609;29;45909;-59
2021/09/17 01:14:11;;;;;;;;;26.50;24.50;;;;;18.41;66.45;101504.03;4906060;29;45284;-59
2021/09/17 01:16:36;;;;;;;;;26.50;22.75;;;;;18.40;66.27;101511.16;4891997;29;45158;-58
2021/09/17 01:19:02;;;;;;;;;24.25;22.25;;;;;18.42;66.61;101516.38;4888095;29;45322;-58
2021/09/17 01:21:27;;;;;;;;;20.75;18.75;;;;;18.48;66.52;101515.88;4900814;29;46464;-58
2021/09/17 01:23:53;;;;;;;;;22.75;18.00;;;;;18.51;66.57;101504.97;4905180;28;45423;-59
2021/09/17 01:26:19;;;;;;;;;24.50;21.00;;;;;18.53;66.52;101507.50;4905904;29;45292;-59
2021/09/17 01:28:44;;;;;;;;;26.25;23.00;;;;;18.55;65.71;101501.06;4905895;29;45241;-59
2021/09/17 01:31:10;;;;;;;;;23.75;21.50;;;;;18.58;66.06;101495.50;4905671;29;46112;-58
2021/09/17 01:33:36;;;;;;;;;25.00;20.25;;;;;18.59;65.81;101499.88;4905253;29;45469;-59
2021/09/17 01:36:07;;;;;;;;;21.25;17.00;;;;;18.60;66.00;101490.03;4904882;29;45293;-58
2021/09/17 01:38:34;;;;;;;;;17.50;17.25;;;;;18.58;65.67;101495.50;4889967;29;45604;-58
2021/09/17 01:41:00;;;;;;;;;21.25;19.75;;;;;18.58;65.86;101490.16;4893195;29;45414;-58
2021/09/17 01:43:27;;;;;;;;;14.75;14.75;;;;;18.54;65.71;101487.88;4899532;29;45462;-59
2021/09/17 01:45:53;;;;;;;;;17.00;15.75;;;;;18.50;65.85;101489.94;4904317;29;45502;-58
2021/09/17 01:48:19;;;;;;;;;16.50;14.00;;;;;18.48;65.75;101489.19;4904330;29;45452;-59
2021/09/17 01:50:45;;;;;;;;;17.50;16.00;;;;;18.44;65.76;101485.09;4903996;29;45499;-59
2021/09/17 01:53:10;;;;;;;;;17.25;15.75;;;;;18.42;65.83;101482.56;4903534;29;45424;-58
2021/09/17 01:55:36;;;;;;;;;20.00;20.00;;;;;18.41;65.92;101483.53;4905165;29;45518;-58
2021/09/17 01:58:04;;;;;;;;;17.50;15.25;;;;;18.39;66.15;101474.78;4905624;29;45448;-58
2021/09/17 02:00:30;;;;;;;;;18.75;17.50;;;;;18.37;66.45;101478.56;4905398;29;45288;-59
2021/09/17 02:02:55;;;;;;;;;20.75;18.50;;;;;18.33;65.90;101469.97;4905021;28;45489;-58
2021/09/17 02:05:21;;;;;;;;;14.00;13.75;;;;;18.33;66.44;101467.28;4905412;29;45435;-58
2021/09/17 02:07:46;;;;;;;;;15.75;15.25;;;;;18.32;66.24;101462.91;4905126;29;45485;-58
2021/09/17 02:10:13;;;;;;;;;19.50;19.50;;;;;18.33;66.16;101466.44;4905119;29;45302;-59
2021/09/17 02:12:39;;;;;;;;;18.75;16.75;;;;;18.30;65.94;101458.69;4905014;29;45392;-59
2021/09/17 02:15:06;;;;;;;;;19.75;16.00;;;;;18.31;66.15;101457.69;4902531;28;45347;-59
2021/09/17 02:17:32;;;;;;;;;15.00;14.25;;;;;18.32;66.43;101456.72;4885904;29;45398;-59
2021/09/17 02:19:57;;;;;;;;;16.00;14.00;;;;;18.33;66.43;101453.13;4895206;29;45268;-59
2021/09/17 02:22:24;;;;;;;;;15.75;13.50;;;;;18.33;66.08;101445.13;4904521;29;45456;-59
2021/09/17 02:24:49;;;;;;;;;21.25;16.25;;;;;18.34;66.16;101446.81;4904932;29;45558;-59
2021/09/17 02:27:14;;;;;;;;;20.75;17.25;;;;;18.33;66.29;101453.97;4905212;29;45464;-59
2021/09/17 02:29:40;;;;;;;;;15.50;14.75;;;;;18.32;66.13;101449.56;4904859;29;45824;-59
2021/09/17 02:32:06;;;;;;;;;17.25;17.25;;;;;18.31;66.17;101449.69;4904886;29;45428;-59
2021/09/17 02:34:32;;;;;;;;;43.25;32.50;;;;;18.30;66.38;101445.34;4904799;29;45445;-59
2021/09/17 02:36:57;;;;;;;;;18.75;18.75;;;;;18.26;66.28;101443.91;4904967;29;45598;-58
2021/09/17 02:39:23;;;;;;;;;17.75;17.50;;;;;18.26;66.24;101446.56;4904699;29;46007;-59
2021/09/17 02:41:48;;;;;;;;;22.00;19.25;;;;;18.25;66.65;101443.06;4904233;29;45597;-58
2021/09/17 02:44:14;;;;;;;;;19.75;17.75;;;;;18.25;66.62;101439.56;4904614;29;45345;-58
2021/09/17 02:46:39;;;;;;;;;17.75;15.25;;;;;18.24;66.58;101436.00;4904864;29;45417;-59
2021/09/17 02:49:05;;;;;;;;;22.75;17.00;;;;;18.23;66.32;101436.13;4904541;29;45330;-58
2021/09/17 02:51:31;;;;;;;;;20.50;18.00;;;;;18.22;66.34;101429.09;4904753;29;45350;-59
2021/09/17 02:53:58;;;;;;;;;17.75;15.75;;;;;18.21;66.54;101432.75;4903334;29;45396;-59
2021/09/17 02:56:24;;;;;;;;;22.50;21.50;;;;;18.21;66.73;101432.75;4904807;29;45445;-59
2021/09/17 02:58:50;;;;;;;;;17.75;15.00;;;;;18.18;66.66;101433.00;4904376;29;45345;-59
2021/09/17 03:01:15;;;;;;;;;15.50;14.75;;;;;18.17;66.66;101425.94;4904520;29;45730;-59
2021/09/17 03:03:41;;;;;;;;;20.00;19.00;;;;;18.14;66.53;101425.22;4904437;28;45609;-58
2021/09/17 03:06:06;;;;;;;;;18.50;16.75;;;;;18.11;66.35;101429.97;4904831;29;45307;-59
2021/09/17 03:08:32;;;;;;;;;16.00;15.75;;;;;18.08;66.71;101431.06;4903560;29;46130;-59
2021/09/17 03:10:57;;;;;;;;;13.25;10.50;;;;;18.04;67.10;101428.78;4904571;29;45382;-58
2021/09/17 03:13:27;;;;;;;;;18.50;16.50;;;;;18.01;66.82;101421.00;4904097;29;45456;-59
2021/09/17 03:15:54;;;;;;;;;16.00;16.00;;;;;17.99;67.13;101420.28;4896044;29;45404;-59
2021/09/17 03:18:20;;;;;;;;;14.75;14.75;;;;;17.95;67.21;101413.50;4885243;29;45328;-59
2021/09/17 03:20:49;;;;;;;;;19.25;18.75;;;;;17.92;67.17;101411.06;4900299;29;45354;-59
2021/09/17 03:23:14;;;;;;;;;16.75;15.50;;;;;17.91;67.39;101412.88;4903504;29;45491;-59
2021/09/17 03:25:40;;;;;;;;;16.25;15.25;;;;;17.90;67.40;101407.69;4904341;29;45360;-59
2021/09/17 03:28:06;;;;;;;;;18.00;15.00;;;;;17.86;67.28;101401.75;4908298;29;46234;-58
2021/09/17 03:30:31;;;;;;;;;18.50;15.00;;;;;17.83;67.53;101408.16;4910622;29;45200;-58
2021/09/17 03:32:57;;;;;;;;;17.75;14.75;;;;;17.76;67.62;101403.44;4910581;28;45206;-59
2021/09/17 03:35:23;;;;;;;;;20.25;15.25;;;;;17.70;67.69;101399.47;4910335;29;45177;-59
2021/09/17 03:37:48;;;;;;;;;18.25;15.25;;;;;17.69;68.14;101404.84;4910113;29;46031;-58
2021/09/17 03:40:14;;;;;;;;;20.25;16.75;;;;;17.68;68.13;101397.84;4910467;29;45277;-59
2021/09/17 03:42:40;;;;;;;;;16.50;14.25;;;;;17.62;67.77;101393.00;4910474;28;45226;-59
2021/09/17 03:45:07;;;;;;;;;21.25;16.25;;;;;17.60;68.01;101403.75;4910398;29;45170;-59
2021/09/17 03:47:32;;;;;;;;;20.50;16.25;;;;;17.55;68.06;101404.13;4910144;29;45630;-59
2021/09/17 03:49:58;;;;;;;;;23.25;21.75;;;;;17.53;68.06;101399.88;4910453;29;45356;-59
2021/09/17 03:52:23;;;;;;;;;17.00;16.75;;;;;17.48;68.12;101400.25;4909781;28;45518;-59
2021/09/17 03:54:49;;;;;;;;;19.75;14.25;;;;;17.45;68.38;101402.28;4909776;29;45335;-59
2021/09/17 03:57:14;;;;;;;;;21.75;15.50;;;;;17.43;68.27;101401.56;4910000;29;46129;-59
2021/09/17 03:59:40;;;;;;;;;15.75;15.75;;;;;17.39;68.35;101394.81;4910170;29;45412;-59
2021/09/17 04:02:05;;;;;;;;;20.75;16.75;;;;;17.36;68.53;101400.34;4910138;29;45243;-59
2021/09/17 04:04:31;;;;;;;;;20.00;17.25;;;;;17.33;68.50;101401.44;4910000;29;45642;-59
2021/09/17 04:06:58;;;;;;;;;21.75;18.50;;;;;17.33;69.05;101397.94;4909752;29;45484;-59
2021/09/17 04:09:23;;;;;;;;;18.75;18.50;;;;;17.35;68.78;101399.50;4909935;29;45392;-58
2021/09/17 04:11:49;;;;;;;;;17.25;15.50;;;;;17.37;68.74;101397.56;4909821;29;45517;-59
2021/09/17 04:14:14;;;;;;;;;22.25;18.25;;;;;17.38;68.73;101398.41;4909925;28;45551;-59
2021/09/17 04:16:40;;;;;;;;;24.00;20.75;;;;;17.40;68.74;101402.66;4894904;29;46179;-59
2021/09/17 04:19:05;;;;;;;;;20.75;18.50;;;;;17.44;68.58;101400.59;4893501;29;45210;-59
2021/09/17 04:21:31;;;;;;;;;24.75;21.25;;;;;17.46;68.30;101396.88;4910022;29;45418;-59
2021/09/17 04:23:56;;;;;;;;;24.75;20.25;;;;;17.50;68.35;101405.47;4909759;28;45483;-59
2021/09/17 04:26:22;;;;;;;;;25.00;21.75;;;;;17.53;68.35;101400.72;4909439;29;45393;-59
2021/09/17 04:28:49;;;;;;;;;21.00;18.75;;;;;17.56;68.11;101402.31;4909715;29;45421;-59
2021/09/17 04:31:15;;;;;;;;;21.75;20.25;;;;;17.59;68.37;101405.59;4909678;29;45339;-59
2021/09/17 04:33:40;;;;;;;;;21.75;18.50;;;;;17.61;68.26;101394.81;4910090;28;45478;-58
2021/09/17 04:36:06;;;;;;;;;20.50;19.50;;;;;17.62;67.98;101404.50;4909394;29;45443;-58
2021/09/17 04:38:32;;;;;;;;;24.25;22.00;;;;;17.61;68.24;101402.78;4907822;29;45375;-59
2021/09/17 04:40:58;;;;;;;;;19.75;18.50;;;;;17.55;68.36;101395.31;4906552;29;45324;-59
2021/09/17 04:43:23;;;;;;;;;21.25;20.50;;;;;17.50;67.98;101390.31;4906702;29;45378;-59
2021/09/17 04:45:49;;;;;;;;;21.25;21.00;;;;;17.49;68.03;101395.78;4906129;29;46411;-59
2021/09/17 04:48:16;;;;;;;;;23.00;17.75;;;;;17.49;68.32;101391.28;4906716;29;45215;-59
2021/09/17 04:50:43;;;;;;;;;17.25;17.25;;;;;17.48;68.39;101396.75;4906527;29;45392;-59
2021/09/17 04:53:09;;;;;;;;;21.00;18.75;;;;;17.44;68.25;101395.28;4905887;29;45396;-59
2021/09/17 04:55:35;;;;;;;;;20.75;20.50;;;;;17.39;68.41;101392.13;4905701;29;45510;-59
2021/09/17 04:58:06;;;;;;;;;21.25;20.75;;;;;17.38;68.81;101385.09;4906455;29;45360;-59
2021/09/17 05:00:32;;;;;;;;;21.50;18.25;;;;;17.35;68.60;101390.66;4906412;29;45308;-59
2021/09/17 05:02:58;;;;;;;;;22.00;19.75;;;;;17.32;68.73;101388.25;4906377;29;45434;-59
2021/09/17 05:05:25;;;;;;;;;24.25;21.75;;;;;17.31;69.01;101392.72;4905862;29;45362;-59
2021/09/17 05:07:50;;;;;;;;;20.00;18.50;;;;;17.32;68.74;101388.25;4906058;29;45339;-58
2021/09/17 05:10:15;;;;;;;;;19.75;18.00;;;;;17.30;68.64;101394.53;4906113;29;45372;-59
2021/09/17 05:12:41;;;;;;;;;23.00;20.75;;;;;17.26;68.99;101390.41;4889233;29;45532;-58
2021/09/17 05:15:07;;;;;;;;;23.25;20.00;;;;;17.26;68.94;101394.88;4903261;29;45461;-59
2021/09/17 05:17:33;;;;;;;;;27.00;26.75;;;;;17.27;68.99;101383.25;4887165;29;45307;-59
2021/09/17 05:19:59;;;;;;;;;20.25;19.00;;;;;17.29;68.99;101384.84;4896532;29;45318;-59
2021/09/17 05:22:25;;;;;;;;;25.50;22.00;;;;;17.29;69.01;101379.50;4905484;29;45436;-59
2021/09/17 05:24:52;;;;;;;;;21.50;20.00;;;;;17.28;69.04;101388.47;4905601;29;45488;-59
2021/09/17 05:27:18;;;;;;;;;21.00;19.75;;;;;17.24;68.97;101387.03;4905619;29;45340;-59
2021/09/17 05:29:44;;;;;;;;;24.25;23.25;;;;;17.23;69.02;101388.00;4905762;29;45334;-59
2021/09/17 05:32:10;;;;;;;;;24.75;20.50;;;;;17.25;69.00;101385.22;4906014;28;45500;-58
2021/09/17 05:34:36;;;;;;;;;25.75;22.50;;;;;17.28;69.15;101383.13;4905502;29;45408;-59
2021/09/17 05:37:02;;;;;;;;;27.50;21.75;;;;;17.28;69.17;101383.13;4905369;29;45308;-59
2021/09/17 05:39:28;;;;;;;;;21.25;20.00;;;;;17.26;69.26;101379.75;4905741;29;45268;-59
2021/09/17 05:41:54;;;;;;;;;23.00;21.25;;;;;17.24;69.06;101379.03;4905640;29;45431;-59
2021/09/17 05:44:19;;;;;;;;;24.75;24.50;;;;;17.24;69.10;101386.19;4905511;29;45351;-56
2021/09/17 05:46:45;;;;;;;;;25.50;22.75;;;;;17.24;69.10;101388.84;4905522;29;45173;-58
2021/09/17 05:49:11;;;;;;;;;42.75;33.75;;;;;17.21;68.88;101386.38;4905401;29;45376;-58
2021/09/17 05:51:37;;;;;;;;;25.00;22.75;;;;;17.22;69.05;101388.09;4905441;29;45397;-57
2021/09/17 05:54:03;;;;;;;;;24.00;23.50;;;;;17.24;68.97;101383.50;4904417;29;45792;-57
2021/09/17 05:56:28;;;;;;;;;25.50;20.75;;;;;17.24;69.02;101381.69;4905000;29;45367;-57
2021/09/17 05:58:54;;;;;;;;;23.00;20.50;;;;;17.23;69.05;101379.16;4899505;29;45503;-53
2021/09/17 06:01:19;;;;;;;;;24.25;23.00;;;;;17.26;69.10;101381.56;4897129;29;45487;-58
2021/09/17 06:03:45;;;;;;;;;34.75;26.25;;;;;17.30;68.95;101380.38;4898606;29;46238;-56
2021/09/17 06:06:11;;;;;;;;;24.25;20.50;;;;;17.35;68.94;101385.34;4897370;29;45505;-55
2021/09/17 06:08:36;;;;;;;;;27.25;24.50;;;;;17.37;68.94;101386.06;4895963;29;45497;-57
2021/09/17 06:11:02;;;;;;;;;21.75;20.50;;;;;17.41;69.09;101390.19;4897018;29;45284;-57
2021/09/17 06:13:28;;;;;;;;;25.75;25.50;;;;;17.47;68.73;101387.91;4895623;29;45373;-58
2021/09/17 06:15:53;;;;;;;;;28.25;23.00;;;;;17.53;68.52;101382.06;4897038;29;45371;-57
2021/09/17 06:18:19;;;;;;;;;26.25;22.50;;;;;17.61;68.24;101385.97;4896050;29;45592;-57
2021/09/17 06:20:45;;;;;;;;;32.50;23.75;;;;;17.68;68.14;101381.84;4899424;29;45421;-58
2021/09/17 06:23:12;;;;;;;;;33.50;24.75;;;;;17.76;67.85;101382.97;4896288;29;45385;-58
2021/09/17 06:25:38;;;;;;;;;27.50;23.50;;;;;17.84;67.57;101382.34;4895814;29;45372;-58
2021/09/17 06:28:05;;;;;;;;;27.50;22.00;;;;;17.92;67.31;101376.41;4896214;29;45516;-58
2021/09/17 06:30:30;;;;;;;;;26.25;21.75;;;;;17.98;67.48;101376.78;4897429;29;45479;-58
2021/09/17 06:32:56;;;;;;;;;29.75;26.00;;;;;18.07;67.47;101376.03;4880497;29;45404;-57
2021/09/17 06:35:21;;;;;;;;;35.25;26.00;;;;;18.15;66.98;101372.75;4898182;29;45370;-58
2021/09/17 06:37:52;;;;;;;;;22.75;20.50;;;;;18.20;67.00;101372.38;4895499;29;45174;-58
2021/09/17 06:40:20;;;;;;;;;23.25;22.00;;;;;18.24;67.36;101371.16;4898245;29;45498;-59
2021/09/17 06:42:47;;;;;;;;;26.75;24.00;;;;;18.25;67.32;101368.38;4895368;29;45532;-59
2021/09/17 06:45:12;;;;;;;;;35.50;27.50;;;;;18.33;66.63;101367.75;4897679;29;45371;-59
2021/09/17 06:47:53;;;;;;;;;30.25;28.25;;;;;18.40;66.78;101368.91;4896017;29;45447;-59
2021/09/17 06:50:21;;;;;;;;;49.25;36.50;;;;;18.48;66.50;101370.97;4896056;29;45734;-59
2021/09/17 06:52:48;;;;;;;;;31.00;25.25;;;;;18.55;66.52;101364.16;4895960;29;45427;-59
2021/09/17 06:55:18;;;;;;;;;28.00;24.50;;;;;18.59;66.60;101363.78;4895916;29;45254;-58
2021/09/17 06:57:49;;;;;;;;;30.00;26.50;;;;;18.63;66.49;101362.53;4896310;29;45371;-59
2021/09/17 07:00:16;;;;;;;;;28.50;24.75;;;;;18.69;66.01;101361.22;4896310;29;45438;-59
2021/09/17 07:02:43;;;;;;;;;29.75;26.50;;;;;18.74;65.89;101359.03;4895079;29;45434;-58
2021/09/17 07:05:09;;;;;;;;;32.25;28.25;;;;;18.81;65.65;101359.34;4895812;29;45539;-59
2021/09/17 07:07:35;;;;;;;;;29.25;27.00;;;;;18.85;65.79;101353.63;4895691;29;45504;-59
2021/09/17 07:10:02;;;;;;;;;27.00;26.50;;;;;18.91;65.51;101357.59;4895845;29;45529;-58
2021/09/17 07:12:27;;;;;;;;;30.75;28.25;;;;;18.94;65.43;101352.00;4896238;29;45402;-59
2021/09/17 07:14:53;;;;;;;;;35.75;29.75;;;;;18.97;65.62;101357.09;4895149;29;45241;-58
2021/09/17 07:17:18;;;;;;;;;25.25;24.00;;;;;19.01;65.23;101357.66;4897828;29;45283;-58
2021/09/17 07:19:43;;;;;;;;;27.25;27.25;;;;;19.04;65.06;101355.59;4896207;29;45261;-59
2021/09/17 07:22:09;;;;;;;;;32.25;27.75;;;;;19.07;65.31;101358.00;4896724;29;45344;-58
2021/09/17 07:24:34;;;;;;;;;31.75;29.00;;;;;19.11;65.39;101353.22;4895177;29;45246;-58
2021/09/17 07:27:00;;;;;;;;;28.75;28.00;;;;;19.14;65.08;101355.66;4898029;29;45538;-58
2021/09/17 07:29:25;;;;;;;;;31.00;30.75;;;;;19.16;64.72;101349.19;4895197;29;45254;-59
2021/09/17 07:31:51;;;;;;;;;34.00;30.00;;;;;19.18;65.25;101349.91;4896741;29;46353;-59
2021/09/17 07:34:16;;;;;;;;;33.25;28.25;;;;;19.23;65.33;101352.19;4895682;29;45333;-58
2021/09/17 07:36:42;;;;;;;;;35.75;30.25;;;;;19.26;64.92;101354.56;4893981;29;45352;-59
2021/09/17 07:39:09;;;;;;;;;37.00;30.50;;;;;19.31;64.68;101351.53;4896777;29;45557;-58
2021/09/17 07:41:35;;;;;;;;;31.75;29.75;;;;;19.36;64.88;101347.50;4894521;29;45428;-58
2021/09/17 07:44:01;;;;;;;;;33.00;31.00;;;;;19.41;65.14;101345.25;4895196;29;45419;-59
2021/09/17 07:46:27;;;;;;;;;36.25;28.75;;;;;19.45;64.82;101353.84;4896794;29;45255;-59
2021/09/17 07:48:52;;;;;;;;;33.75;29.25;;;;;19.51;64.59;101353.28;4894710;29;45416;-58
2021/09/17 07:51:18;;;;;;;;;30.75;30.25;;;;;19.57;64.89;101354.63;4897546;29;46042;-59
2021/09/17 07:53:43;;;;;;;;;35.75;29.75;;;;;19.60;64.95;101357.91;4892300;29;45687;-58
2021/09/17 07:56:09;;;;;;;;;28.75;23.00;;;;;19.64;63.96;101356.63;4896732;29;45298;-58
2021/09/17 07:58:34;;;;;;;;;35.50;30.00;;;;;19.71;64.20;101364.97;4894770;29;45431;-59
2021/09/17 08:01:00;;;;;;;;;32.50;28.50;;;;;19.75;64.18;101361.06;4897363;29;46320;-59
2021/09/17 08:03:29;;;;;;;;;31.50;29.50;;;;;19.79;63.89;101359.78;4895180;29;45229;-59
2021/09/17 08:05:55;;;;;;;;;31.00;28.50;;;;;19.86;63.68;101360.94;4895550;29;45520;-59
2021/09/17 08:08:21;;;;;;;;;32.25;26.25;;;;;19.89;63.06;101355.31;4897198;29;45457;-59
2021/09/17 08:10:46;;;;;;;;;26.25;24.00;;;;;19.94;63.07;101361.09;4895595;29;46244;-59
2021/09/17 08:13:12;;;;;;;;;21.25;16.50;;;;;19.96;62.33;101355.63;4895377;29;45366;-59
2021/09/17 08:15:38;;;;;;;;;16.75;16.25;;;;;19.94;61.21;101360.25;4898763;29;45603;-59
2021/09/17 08:18:03;;;;;;;;;12.25;12.00;;;;;19.92;61.11;101365.75;4897909;29;45485;-59
2021/09/17 08:20:29;;;;;;;;;13.50;12.00;;;;;19.94;60.86;101370.97;4900982;29;45598;-59
2021/09/17 08:22:54;;;;;;;;;10.75;10.25;;;;;19.98;61.14;101364.34;4898666;29;45218;-59
2021/09/17 08:25:20;;;;;;;;;15.25;12.75;;;;;20.08;61.14;101367.91;4897838;29;45494;-59
2021/09/17 08:27:46;;;;;;;;;14.50;13.25;;;;;20.18;60.64;101363.41;4898630;29;45322;-59
2021/09/17 08:30:12;;;;;;;;;16.00;15.50;;;;;20.27;60.87;101359.91;4898037;29;45644;-59
2021/09/17 08:32:39;;;;;;;;;13.50;13.00;;;;;20.35;60.17;101361.88;4898382;28;45369;-59
2021/09/17 08:35:07;;;;;;;;;16.00;12.75;;;;;20.39;60.21;101365.16;4898446;29;45345;-59
2021/09/17 08:37:32;;;;;;;;;16.75;15.00;;;;;20.42;59.75;101364.84;4898202;29;45241;-58
2021/09/17 08:39:58;;;;;;;;;12.75;11.75;;;;;20.50;59.59;101367.72;4896914;29;45333;-59
2021/09/17 08:42:23;;;;;;;;;13.50;11.25;;;;;20.56;59.53;101361.81;4898112;29;45208;-59
2021/09/17 08:44:49;;;;;;;;;14.50;12.25;;;;;20.61;59.12;101364.88;4899536;29;45379;-59
2021/09/17 08:47:17;;;;;;;;;12.75;10.75;;;;;20.66;58.89;101362.66;4897624;29;45226;-59
2021/09/17 08:49:44;;;;;;;;;11.00;9.00;;;;;20.74;59.08;101360.09;4899623;29;45416;-58
2021/09/17 08:52:10;;;;;;;;;11.25;9.00;;;;;20.80;58.66;101364.91;4896765;29;45545;-58
2021/09/17 08:54:35;;;;;;;;;12.00;11.75;;;;;20.87;58.60;101355.31;4899785;29;45413;-58
2021/09/17 08:57:01;;;;;;;;;10.75;10.75;;;;;20.94;58.43;101357.44;4897605;29;45450;-58
2021/09/17 08:59:27;;;;;;;;;13.00;13.00;;;;;21.03;58.08;101356.56;4898181;29;46217;-58
2021/09/17 09:01:52;;;;;;;;;13.75;13.75;;;;;21.12;57.81;101366.41;4897811;29;45371;-58
2021/09/17 09:04:41;;;;;;;;;11.75;11.75;;;;;21.21;57.96;101354.81;4898111;29;45534;-58
2021/09/17 09:07:06;;;;;;;;;15.00;12.50;;;;;21.26;58.10;101355.25;4900502;29;45592;-58
2021/09/17 09:09:32;;;;;;;;;14.25;11.25;;;;;21.34;57.99;101352.72;4897237;29;45324;-58
2021/09/17 09:11:57;;;;;;;;;10.25;9.50;;;;;21.40;57.01;101354.78;4898386;29;45252;-59
2021/09/17 09:14:23;;;;;;;;;13.25;10.25;;;;;21.42;57.22;101354.66;4897235;29;45512;-59
2021/09/17 09:16:53;;;;;;;;;13.75;12.00;;;;;21.48;56.98;101350.53;4897024;29;45309;-58
2021/09/17 09:19:23;;;;;;;;;12.75;9.50;;;;;21.51;56.65;101348.41;4900035;29;46174;-58
2021/09/17 09:21:53;;;;;;;;;11.50;11.25;;;;;21.57;56.45;101347.00;4897814;29;45427;-58
2021/09/17 09:24:21;;;;;;;;;11.50;10.00;;;;;21.60;56.64;101342.16;4897340;29;45495;-59
2021/09/17 09:27:09;;;;;;;;;14.75;11.25;;;;;21.62;55.99;101347.38;4897467;29;45430;-58
2021/09/17 09:29:35;;;;;;;;;8.50;7.75;;;;;21.58;55.82;101346.00;4897207;29;46047;-58
2021/09/17 09:32:01;;;;;;;;;7.25;7.25;;;;;21.60;56.16;101339.50;4897224;28;45381;-59
2021/09/17 09:34:49;;;;;;;;;12.00;9.75;;;;;21.68;55.92;101344.97;4897362;29;45388;-58
2021/09/17 09:37:21;;;;;;;;;12.00;9.50;;;;;21.73;55.48;101339.16;4896426;29;45509;-58
2021/09/17 09:40:01;;;;;;;;;10.25;7.50;;;;;21.80;54.84;101347.44;4895908;29;46344;-58
2021/09/17 09:42:38;;;;;;;;;14.00;11.00;;;;;21.82;55.18;101338.25;4896336;29;45516;-58
2021/09/17 09:45:14;;;;;;;;;10.00;9.00;;;;;21.90;55.02;101342.88;4897182;29;45441;-58
2021/09/17 09:47:41;;;;;;;;;8.00;8.00;;;;;21.94;54.98;101331.69;4897076;29;45483;-58
2021/09/17 09:50:23;;;;;;;;;10.25;9.25;;;;;22.00;54.48;101340.97;4892944;29;46579;-58
2021/09/17 09:52:51;;;;;;;;;16.75;10.00;;;;;22.05;54.30;101340.53;4896693;29;45504;-58
2021/09/17 09:55:16;;;;;;;;;11.25;10.25;;;;;22.11;54.83;101338.09;4896178;29;45445;-58
2021/09/17 09:57:42;;;;;;;;;10.75;10.00;;;;;22.14;54.08;101337.81;4896959;29;45428;-59
2021/09/17 10:00:10;;;;;;;;;10.25;10.25;;;;;22.12;53.68;101333.56;4896733;29;45419;-59
2021/09/17 10:02:37;;;;;;;;;11.00;8.75;;;;;22.13;53.47;101332.59;4896579;29;45395;-58
2021/09/17 10:05:05;;;;;;;;;8.00;8.00;;;;;22.08;52.97;101335.72;4899118;29;45368;-58
2021/09/17 10:07:31;;;;;;;;;7.25;7.25;;;;;22.09;53.53;101334.72;4894958;29;45543;-58
2021/09/17 10:09:57;;;;;;;;;8.50;6.00;;;;;22.14;53.49;101327.09;4896688;29;46235;-59
2021/09/17 10:12:24;;;;;;;;;8.00;7.00;;;;;22.19;53.26;101330.13;4897092;29;45384;-59
2021/09/17 10:14:51;;;;;;;;;7.00;7.00;;;;;22.22;52.67;101321.81;4897994;29;45260;-59
2021/09/17 10:17:20;;;;;;;;;6.75;4.50;;;;;22.22;52.38;101321.81;4898352;29;45364;-59
2021/09/17 10:19:47;;;;;;;;;6.25;4.75;;;;;22.22;52.20;101329.84;4898272;29;45305;-59
2021/09/17 10:22:39;;;;;;;;;6.00;6.00;;;;;22.29;51.66;101324.72;4896078;28;45239;-59
2021/09/17 10:25:14;;;;;;;;;7.25;6.75;;;;;22.39;51.80;101316.59;4897823;29;45495;-59
2021/09/17 10:28:02;;;;;;;;;7.25;7.00;;;;;22.47;51.97;101306.78;4895842;29;45534;-59
2021/09/17 10:30:34;;;;;;;;;6.50;5.50;;;;;22.58;52.03;101309.19;4884759;29;46518;-59
2021/09/17 10:32:59;;;;;;;;;7.25;7.00;;;;;22.70;52.21;101311.66;4896701;29;45541;-59
2021/09/17 10:35:31;;;;;;;;;9.00;7.75;;;;;22.77;51.99;101308.19;4896867;29;45455;-59
2021/09/17 10:38:10;;;;;;;;;7.75;6.50;;;;;22.86;51.56;101306.44;4894589;29;45464;-59
2021/09/17 10:40:54;;;;;;;;;6.75;5.50;;;;;22.86;50.46;101310.97;4903955;29;46386;-58
2021/09/17 10:43:26;;;;;;;;;8.50;7.50;;;;;22.89;50.27;101305.28;4895340;29;45391;-58
2021/09/17 10:45:57;;;;;;;;;10.50;7.25;;;;;22.96;50.48;101309.88;4895515;29;45519;-59
2021/09/17 10:48:24;;;;;;;;;7.25;6.50;;;;;23.05;50.65;101308.06;4898161;29;45263;-59
2021/09/17 10:50:54;;;;;;;;;7.00;7.00;;;;;23.05;49.01;101300.00;4896042;29;45446;-58
2021/09/17 10:53:39;;;;;;;;;5.25;5.25;;;;;23.07;49.82;101306.94;4896714;29;45268;-58
2021/09/17 10:56:11;;;;;;;;;7.25;6.25;;;;;23.08;49.61;101303.25;4897485;29;45446;-60
2021/09/17 10:58:41;;;;;;;;;8.00;6.50;;;;;23.15;49.93;101291.84;4894922;29;45460;-60
2021/09/17 11:01:12;;;;;;;;;8.00;7.00;;;;;23.18;50.10;101300.44;4897468;29;45334;-58
2021/09/17 11:03:45;;;;;;;;;8.00;7.00;;;;;23.21;49.43;101292.03;4895711;29;45524;-58
2021/09/17 11:06:21;;;;;;;;;5.50;4.75;;;;;23.20;49.05;101292.22;4896045;29;45519;-58
2021/09/17 11:09:04;;;;;;;;;10.25;7.00;;;;;23.27;49.02;101293.25;4895932;29;45593;-58
2021/09/17 11:11:34;;;;;;;;;7.00;7.00;;;;;23.39;49.37;101289.31;4893697;29;46027;-58